Time;durP1;ratioP1;P1;durP2;ratioP2;P2;SDS_P1;SDS_P2;PMS_P1;PMS_P2;Temp;Humidity;BMP_temperature;BMP_pressure;BME280_temperature;BME280_humidity;BME280_pressure;Samples;Min_cycle;Max_cycle;Signal;HPM_P1;HPM_P2
2021/03/16 00:00:08;;;;;;;2.72;1.58;;;;;;;10.05;84.54;102207.25;4832353;29;20052;-84
2021/03/16 00:02:35;;;;;;;2.55;1.33;;;;;;;10.04;84.41;102206.41;4841739;29;20069;-85
2021/03/16 00:05:04;;;;;;;2.88;1.73;;;;;;;10.07;84.45;102211.34;4841327;29;20037;-85
2021/03/16 00:07:31;;;;;;;4.38;1.20;;;;;;;10.04;84.56;102192.56;4825971;29;20080;-85
2021/03/16 00:09:58;;;;;;;1.33;1.23;;;;;;;10.02;84.45;102183.78;4848301;29;20068;-84
2021/03/16 00:12:24;;;;;;;2.28;1.13;;;;;;;10.01;84.47;102190.41;4878541;29;20109;-85
2021/03/16 00:14:51;;;;;;;1.75;1.10;;;;;;;10.06;84.26;102186.75;4854543;29;20431;-85
2021/03/16 00:17:18;;;;;;;2.35;1.25;;;;;;;10.03;84.24;102185.41;4828099;29;20042;-84
2021/03/16 00:19:46;;;;;;;5.15;1.27;;;;;;;10.01;84.34;102195.94;4840069;29;20376;-84
2021/03/16 00:22:12;;;;;;;2.22;1.08;;;;;;;9.98;84.42;102196.56;4840006;29;20088;-85
2021/03/16 00:24:39;;;;;;;4.80;1.65;;;;;;;9.98;84.28;102191.03;4825369;29;20094;-85
2021/03/16 00:27:07;;;;;;;2.17;1.25;;;;;;;9.99;84.41;102184.38;4855193;29;20050;-84
2021/03/16 00:29:33;;;;;;;2.65;1.33;;;;;;;9.97;84.38;102194.13;4858958;29;20054;-84
2021/03/16 00:32:00;;;;;;;1.73;1.10;;;;;;;9.98;84.37;102185.50;4837352;29;20049;-83
2021/03/16 00:34:27;;;;;;;4.05;1.50;;;;;;;9.97;84.14;102189.41;4846932;29;20067;-85
2021/03/16 00:36:53;;;;;;;1.40;1.27;;;;;;;9.95;84.16;102186.13;4861039;29;20087;-85
2021/03/16 00:39:19;;;;;;;3.35;1.50;;;;;;;9.92;84.25;102186.75;4858585;29;20098;-85
2021/03/16 00:41:46;;;;;;;3.33;1.65;;;;;;;9.92;84.32;102194.22;4846911;29;20117;-86
2021/03/16 00:44:12;;;;;;;3.78;1.13;;;;;;;9.92;84.33;102197.81;4846343;29;20050;-85
2021/03/16 00:46:38;;;;;;;2.58;1.58;;;;;;;9.88;84.00;102194.00;4858898;29;20505;-84
2021/03/16 00:49:05;;;;;;;3.40;1.50;;;;;;;9.86;84.62;102193.47;4857426;29;20061;-85
2021/03/16 00:51:32;;;;;;;7.53;2.15;;;;;;;9.88;84.70;102198.69;4845373;29;20118;-85
2021/03/16 00:53:58;;;;;;;4.32;1.50;;;;;;;9.90;84.66;102200.03;4844086;29;20057;-85
2021/03/16 00:56:25;;;;;;;2.95;1.58;;;;;;;9.92;84.75;102192.28;4854311;29;20050;-85
2021/03/16 00:58:51;;;;;;;4.75;1.80;;;;;;;9.97;84.61;102194.94;4854049;29;20070;-84
2021/03/16 01:01:20;;;;;;;2.42;1.70;;;;;;;10.00;84.54;102188.78;4833153;29;20099;-86
2021/03/16 01:03:47;;;;;;;3.63;1.50;;;;;;;10.02;84.60;102192.06;4847750;29;20509;-85
2021/03/16 01:06:13;;;;;;;2.50;1.27;;;;;;;10.02;84.46;102185.72;4855824;29;20443;-85
2021/03/16 01:08:40;;;;;;;1.60;1.42;;;;;;;9.98;84.54;102184.69;4858101;29;20038;-85
2021/03/16 01:11:06;;;;;;;17.75;2.65;;;;;;;9.98;84.51;102181.94;4868721;29;20042;-85
2021/03/16 01:13:33;;;;;;;4.70;1.55;;;;;;;9.96;84.64;102182.22;4862772;29;20053;-85
2021/03/16 01:16:00;;;;;;;3.80;1.80;;;;;;;9.92;84.81;102172.91;4858958;29;20045;-85
2021/03/16 01:18:26;;;;;;;4.75;2.20;;;;;;;9.97;84.73;102181.09;4853168;29;20112;-84
2021/03/16 01:20:53;;;;;;;3.28;1.80;;;;;;;9.99;84.54;102180.78;4845827;29;20077;-86
2021/03/16 01:23:20;;;;;;;7.18;2.88;;;;;;;9.99;84.53;102176.06;4861899;29;20050;-86
2021/03/16 01:26:03;;;;;;;9.23;2.95;;;;;;;9.94;84.98;102178.13;4832406;29;20050;-85
2021/03/16 01:28:30;;;;;;;7.32;2.58;;;;;;;9.93;84.75;102169.00;4829334;29;20048;-84
2021/03/16 01:30:56;;;;;;;14.43;4.15;;;;;;;9.92;84.95;102172.91;4851811;29;20495;-85
2021/03/16 01:33:24;;;;;;;8.95;3.08;;;;;;;9.92;85.04;102174.84;4853227;29;20045;-86
2021/03/16 01:35:51;;;;;;;8.63;3.30;;;;;;;9.96;84.92;102176.69;4862068;29;20054;-85
2021/03/16 01:38:17;;;;;;;8.90;3.08;;;;;;;10.00;84.84;102174.13;4827205;29;20132;-85
2021/03/16 01:40:44;;;;;;;7.22;3.90;;;;;;;10.02;84.87;102183.78;4857196;29;20074;-84
2021/03/16 01:43:13;;;;;;;7.78;3.10;;;;;;;9.98;84.90;102179.16;4846044;29;20045;-85
2021/03/16 01:45:41;;;;;;;8.80;3.22;;;;;;;9.95;85.10;102186.13;4845751;29;20049;-86
2021/03/16 01:48:10;;;;;;;7.38;4.03;;;;;;;9.96;85.13;102193.28;4858022;29;20136;-85
2021/03/16 01:50:41;;;;;;;7.72;3.38;;;;;;;9.98;85.21;102187.47;4854905;29;20038;-83
2021/03/16 01:53:08;;;;;;;7.60;4.43;;;;;;;9.97;85.30;102186.63;4861452;29;20069;-86
2021/03/16 01:55:36;;;;;;;7.95;2.97;;;;;;;9.98;85.33;102188.25;4861793;29;20045;-86
2021/03/16 01:58:03;;;;;;;6.85;4.35;;;;;;;9.99;85.21;102180.78;4859450;29;20037;-85
2021/03/16 02:00:38;;;;;;;5.22;3.33;;;;;;;9.95;85.75;102183.38;4853635;29;20071;-86
2021/03/16 02:03:06;;;;;;;7.07;3.78;;;;;;;9.96;85.51;102182.22;4829240;29;20066;-85
2021/03/16 02:05:33;;;;;;;5.45;3.47;;;;;;;9.97;85.40;102175.56;4831659;29;20124;-85
2021/03/16 02:08:14;;;;;;;12.02;3.72;;;;;;;9.94;85.68;102170.66;4846851;29;20077;-85
2021/03/16 02:11:06;;;;;;;7.85;3.63;;;;;;;9.93;85.73;102166.22;4853935;29;20049;-85
2021/03/16 02:13:53;;;;;;;10.55;3.38;;;;;;;9.92;85.73;102170.13;4839297;29;20046;-85
2021/03/16 02:16:31;;;;;;;8.95;3.95;;;;;;;9.90;85.88;102177.91;4846505;29;20096;-85
2021/03/16 02:19:01;;;;;;;7.18;3.50;;;;;;;9.95;85.83;102169.53;4852916;29;20034;-85
2021/03/16 02:21:32;;;;;;;5.95;3.92;;;;;;;9.92;85.90;102164.59;4845017;29;20065;-85
2021/03/16 02:24:05;;;;;;;6.93;3.80;;;;;;;9.91;86.10;102162.13;4841939;29;20150;-85
2021/03/16 02:27:16;;;;;;;9.55;4.35;;;;;;;9.88;86.36;102163.56;4829058;29;20049;-85
2021/03/16 02:29:48;;;;;;;8.32;3.78;;;;;;;9.87;86.12;102166.66;4842893;29;20165;-85
2021/03/16 02:32:20;;;;;;;10.77;5.38;;;;;;;9.86;86.17;102160.28;4844023;29;20048;-86
2021/03/16 02:34:51;;;;;;;8.38;3.38;;;;;;;9.84;86.38;102162.56;4849240;29;20106;-85
2021/03/16 02:37:19;;;;;;;8.93;3.55;;;;;;;9.84;86.50;102161.72;4835905;29;20778;-85
2021/03/16 02:39:47;;;;;;;7.75;3.40;;;;;;;9.83;86.58;102160.91;4826267;29;20050;-86
2021/03/16 02:42:16;;;;;;;7.25;3.45;;;;;;;9.82;86.75;102162.03;4853377;29;20110;-86
2021/03/16 02:44:43;;;;;;;10.65;4.28;;;;;;;9.80;86.94;102167.84;4859491;29;20065;-85
2021/03/16 02:47:10;;;;;;;7.20;3.67;;;;;;;9.80;86.80;102161.50;4843945;29;20083;-84
2021/03/16 02:49:41;;;;;;;10.15;3.80;;;;;;;9.79;86.82;102170.94;4858807;29;20138;-85
2021/03/16 02:52:11;;;;;;;7.90;3.58;;;;;;;9.79;87.00;102165.41;4850517;29;20073;-85
2021/03/16 02:54:38;;;;;;;16.27;6.38;;;;;;;9.78;87.03;102166.53;4843150;29;20077;-86
2021/03/16 02:57:13;;;;;;;9.93;4.82;;;;;;;9.77;86.96;102170.41;4832062;29;20152;-84
2021/03/16 02:59:43;;;;;;;15.38;4.90;;;;;;;9.80;87.07;102167.03;4858647;29;20075;-84
2021/03/16 03:02:14;;;;;;;11.30;4.72;;;;;;;9.80;87.12;102172.56;4854022;29;20071;-87
2021/03/16 03:04:42;;;;;;;15.95;5.88;;;;;;;9.80;87.22;102164.28;4844805;29;20053;-85
2021/03/16 03:07:12;;;;;;;12.48;5.10;;;;;;;9.78;87.43;102163.75;4858878;29;20042;-85
2021/03/16 03:09:40;;;;;;;12.10;4.95;;;;;;;9.76;87.16;102161.31;4858114;29;20054;-84
2021/03/16 03:12:08;;;;;;;7.03;4.20;;;;;;;9.79;87.34;102168.97;4842231;29;20094;-85
2021/03/16 03:14:36;;;;;;;6.65;5.15;;;;;;;9.81;87.38;102168.69;4836531;29;20046;-84
2021/03/16 03:17:07;;;;;;;;;;;;;;;9.79;87.87;102165.41;4853780;29;20045;-85
2021/03/16 03:19:33;;;;;;;10.23;5.57;;;;;;;9.80;87.50;102175.34;4859646;29;19972;-85
2021/03/16 03:22:20;;;;;;;11.30;6.18;;;;;;;9.78;87.82;102164.59;4860597;29;20434;-85
2021/03/16 03:24:52;;;;;;;13.32;5.88;;;;;;;9.80;87.64;102172.56;4859904;29;20042;-85
2021/03/16 03:27:33;;;;;;;13.55;6.47;;;;;;;9.78;87.74;102164.59;4842139;29;20053;-86
2021/03/16 03:30:00;;;;;;;11.48;5.82;;;;;;;9.75;88.28;102164.38;4843076;29;20499;-88
2021/03/16 03:32:29;;;;;;;12.23;5.80;;;;;;;9.77;88.08;102162.94;4853740;29;20045;-85
2021/03/16 03:34:59;;;;;;;9.73;5.97;;;;;;;9.76;88.30;102160.50;4860708;29;20084;-86
2021/03/16 03:37:27;;;;;;;11.15;6.25;;;;;;;9.74;88.32;102163.53;4859572;29;20124;-86
2021/03/16 03:39:56;;;;;;;14.88;6.82;;;;;;;9.78;88.26;102164.59;4842171;29;20077;-86
2021/03/16 03:42:25;;;;;;;12.65;7.20;;;;;;;9.76;88.50;102163.25;4859693;29;20045;-86
2021/03/16 03:44:52;;;;;;;19.30;7.90;;;;;;;9.78;88.17;102166.53;4838061;29;20166;-87
2021/03/16 03:47:19;;;;;;;11.95;6.00;;;;;;;9.80;88.72;102167.03;4851739;29;20561;-87
2021/03/16 03:49:46;;;;;;;11.57;6.20;;;;;;;9.80;88.62;102175.34;4828731;29;20052;-87
2021/03/16 03:52:17;;;;;;;13.50;6.40;;;;;;;9.79;88.87;102176.47;4842618;29;20053;-87
2021/03/16 03:54:45;;;;;;;16.08;8.13;;;;;;;9.77;89.08;102179.53;4832270;29;20187;-86
2021/03/16 03:57:14;;;;;;;15.68;6.70;;;;;;;9.77;89.13;102160.16;4844393;29;20820;-87
2021/03/16 03:59:46;;;;;;;10.70;5.60;;;;;;;9.76;89.49;102166.03;4831381;29;20050;-86
2021/03/16 04:02:14;;;;;;;15.38;6.90;;;;;;;9.77;89.20;102167.63;4842499;29;20041;-87
2021/03/16 04:04:42;;;;;;;14.32;7.80;;;;;;;9.75;89.51;102165.19;4842775;29;20514;-86
2021/03/16 04:07:09;;;;;;;20.25;8.10;;;;;;;9.75;89.59;102158.84;4859368;29;20106;-87
2021/03/16 04:09:36;;;;;;;12.70;6.57;;;;;;;9.76;89.81;102164.09;4839702;29;20106;-87
2021/03/16 04:12:04;;;;;;;13.52;7.90;;;;;;;9.77;89.59;102164.88;4829364;29;20049;-87
2021/03/16 04:14:32;;;;;;;13.32;6.97;;;;;;;9.78;89.86;102161.00;4860250;29;20041;-86
2021/03/16 04:16:59;;;;;;;14.05;8.98;;;;;;;9.80;89.54;102169.81;4842326;29;20106;-87
2021/03/16 04:19:26;;;;;;;19.65;8.02;;;;;;;9.80;89.75;102167.03;4847233;29;20037;-87
2021/03/16 04:21:54;;;;;;;18.25;9.23;;;;;;;9.82;89.56;102164.81;4860924;29;20490;-87
2021/03/16 04:24:22;;;;;;;13.02;6.97;;;;;;;9.81;90.00;102160.38;4841080;29;20078;-86
2021/03/16 04:26:49;;;;;;;16.55;7.55;;;;;;;9.83;89.90;102166.44;4842217;29;20038;-87
2021/03/16 04:29:15;;;;;;;16.67;7.30;;;;;;;9.85;90.07;102166.13;4850259;29;20098;-85
2021/03/16 04:31:42;;;;;;;12.70;7.63;;;;;;;9.84;90.02;102170.03;4840600;29;20058;-86
2021/03/16 04:34:08;;;;;;;10.77;6.65;;;;;;;9.82;90.60;102175.03;4838671;29;20061;-86
2021/03/16 04:36:35;;;;;;;11.07;6.05;;;;;;;9.82;90.42;102173.09;4858801;29;20093;-85
2021/03/16 04:39:02;;;;;;;14.90;6.63;;;;;;;9.84;90.36;102165.31;4858004;29;20044;-85
2021/03/16 04:41:28;;;;;;;15.93;6.72;;;;;;;9.86;90.29;102171.34;4859818;29;20061;-86
2021/03/16 04:43:55;;;;;;;10.95;5.50;;;;;;;9.88;90.36;102163.56;4871630;29;20048;-85
2021/03/16 04:46:21;;;;;;;11.85;6.13;;;;;;;9.86;90.50;102174.13;4852373;29;20093;-86
2021/03/16 04:48:48;;;;;;;14.50;6.28;;;;;;;9.88;90.28;102171.03;4849761;29;20089;-86
2021/03/16 04:51:14;;;;;;;17.08;6.32;;;;;;;9.91;90.65;102178.72;4831541;29;20069;-85
2021/03/16 04:53:40;;;;;;;8.80;5.97;;;;;;;9.89;90.43;102181.81;4856139;29;20099;-85
2021/03/16 04:56:07;;;;;;;9.68;5.72;;;;;;;9.90;90.56;102182.63;4859493;29;20505;-85
2021/03/16 04:58:38;;;;;;;5.55;4.53;;;;;;;9.91;90.66;102185.09;4851232;29;20434;-84
2021/03/16 05:01:05;;;;;;;5.47;4.68;;;;;;;9.90;90.94;102183.44;4858710;29;20037;-85
2021/03/16 05:03:32;;;;;;;8.68;4.72;;;;;;;9.93;90.79;102185.59;4856487;29;20086;-86
2021/03/16 05:05:59;;;;;;;11.02;5.05;;;;;;;9.94;90.66;102194.72;4842917;29;20050;-84
2021/03/16 05:08:26;;;;;;;7.20;3.97;;;;;;;9.95;90.67;102194.44;4837033;29;20038;-85
2021/03/16 05:10:52;;;;;;;8.18;3.92;;;;;;;9.99;90.56;102197.38;4859591;29;20145;-85
2021/03/16 05:13:20;;;;;;;5.35;4.53;;;;;;;10.01;90.54;102207.03;4858842;29;20049;-84
2021/03/16 05:15:47;;;;;;;6.97;3.58;;;;;;;10.02;90.70;102203.13;4854587;29;20584;-83
2021/03/16 05:18:14;;;;;;;7.65;3.53;;;;;;;10.04;90.56;102214.72;4846858;29;20049;-82
2021/03/16 05:20:42;;;;;;;6.13;2.72;;;;;;;10.01;90.66;102218.09;4862432;29;20117;-82
2021/03/16 05:23:08;;;;;;;10.50;2.90;;;;;;;10.00;90.94;102222.00;4853485;29;20098;-82
2021/03/16 05:25:34;;;;;;;7.38;2.45;;;;;;;10.03;90.79;102232.47;4860023;29;20128;-82
2021/03/16 05:28:00;;;;;;;3.13;2.17;;;;;;;10.06;90.71;102233.78;4858402;29;20038;-83
2021/03/16 05:30:27;;;;;;;10.20;2.42;;;;;;;10.06;90.99;102229.06;4855106;29;20140;-83
2021/03/16 05:32:55;;;;;;;4.00;1.58;;;;;;;10.06;90.76;102228.25;4842737;29;20136;-82
2021/03/16 05:35:22;;;;;;;8.43;2.28;;;;;;;10.04;91.24;102236.84;4821106;29;20075;-82
2021/03/16 05:37:48;;;;;;;6.35;1.83;;;;;;;10.07;90.89;102236.25;4858116;29;20114;-82
2021/03/16 05:40:15;;;;;;;5.78;1.80;;;;;;;10.09;91.01;102252.53;4845080;29;20136;-82
2021/03/16 05:42:41;;;;;;;6.13;2.05;;;;;;;10.08;90.77;102257.25;4846969;29;20050;-83
2021/03/16 05:45:08;;;;;;;6.90;1.85;;;;;;;10.07;91.12;102250.06;4829581;29;20128;-82
2021/03/16 05:47:37;;;;;;;2.25;1.52;;;;;;;10.09;91.01;102258.88;4857098;29;20459;-81
2021/03/16 05:50:04;;;;;;;5.72;1.80;;;;;;;10.08;91.20;102251.72;4852329;29;20591;-81
2021/03/16 05:52:31;;;;;;;4.57;1.75;;;;;;;10.10;91.29;102266.06;4835070;29;20077;-83
2021/03/16 05:54:58;;;;;;;5.03;1.70;;;;;;;10.09;91.32;102260.81;4857087;29;20494;-82
2021/03/16 05:57:27;;;;;;;5.28;1.70;;;;;;;10.08;91.44;102265.56;4842950;29;20107;-81
2021/03/16 05:59:54;;;;;;;3.20;1.77;;;;;;;10.11;91.19;102264.94;4847433;29;20050;-82
2021/03/16 06:02:20;;;;;;;6.57;2.25;;;;;;;10.11;91.25;102273.22;4843341;29;20129;-83
2021/03/16 06:04:47;;;;;;;4.07;2.10;;;;;;;10.10;91.09;102268.00;4846202;29;20052;-81
2021/03/16 06:07:14;;;;;;;3.75;2.13;;;;;;;10.11;91.48;102273.22;4859909;29;20132;-81
2021/03/16 06:09:44;;;;;;;3.63;2.15;;;;;;;10.13;91.50;102279.34;4842912;29;20522;-81
2021/03/16 06:12:11;;;;;;;4.00;1.98;;;;;;;10.14;91.37;102285.69;4859383;29;20566;-82
2021/03/16 06:14:49;;;;;;;6.68;2.28;;;;;;;10.13;91.22;102282.09;4854881;29;20077;-82
2021/03/16 06:17:15;;;;;;;4.82;2.15;;;;;;;10.16;91.25;102308.34;4859185;29;20228;-81
2021/03/16 06:19:42;;;;;;;3.95;1.63;;;;;;;10.17;91.16;102298.91;4857766;29;20049;-82
2021/03/16 06:22:08;;;;;;;12.27;3.03;;;;;;;10.16;91.35;102311.94;4839428;29;20058;-84
2021/03/16 06:24:45;;;;;;;3.95;1.85;;;;;;;10.14;91.48;102328.00;4842577;29;20050;-83
2021/03/16 06:27:25;;;;;;;4.63;1.63;;;;;;;10.11;92.15;102325.00;4841084;29;20054;-83
2021/03/16 06:29:52;;;;;;;3.88;1.52;;;;;;;10.15;91.56;102335.19;4854780;29;20038;-84
2021/03/16 06:32:19;;;;;;;4.38;1.70;;;;;;;10.13;91.71;102343.00;4853094;29;20493;-82
2021/03/16 06:34:46;;;;;;;1.33;1.13;;;;;;;10.16;91.50;102345.16;4858652;29;20045;-83
2021/03/16 06:37:17;;;;;;;3.92;1.17;;;;;;;10.17;91.79;102349.53;4854808;29;20066;-82
2021/03/16 06:39:44;;;;;;;3.25;0.82;;;;;;;10.19;91.29;102352.81;4842228;29;20073;-84
2021/03/16 06:42:27;;;;;;;1.63;0.82;;;;;;;10.19;91.57;102361.13;4848104;29;20401;-83
2021/03/16 06:45:07;;;;;;;1.35;0.70;;;;;;;10.20;91.54;102354.47;4841433;29;20141;-84
2021/03/16 06:47:43;;;;;;;6.20;1.45;;;;;;;10.20;91.49;102351.72;4832039;29;20684;-82
2021/03/16 06:50:11;;;;;;;3.03;0.80;;;;;;;10.21;91.39;102335.94;4843539;29;20046;-81
2021/03/16 06:52:37;;;;;;;5.28;1.52;;;;;;;10.21;91.44;102331.22;4853711;29;20152;-81
2021/03/16 06:55:11;;;;;;;2.72;0.90;;;;;;;10.21;91.52;102331.22;4852817;29;20041;-82
2021/03/16 06:57:37;;;;;;;4.15;1.15;;;;;;;10.25;91.21;102336.94;4841241;29;20069;-82
2021/03/16 07:00:10;;;;;;;2.17;0.70;;;;;;;10.23;91.49;102337.28;4858038;29;20140;-82
2021/03/16 07:02:38;;;;;;;2.72;1.42;;;;;;;10.26;91.46;102344.13;4833597;29;20569;-83
2021/03/16 07:05:06;;;;;;;2.33;2.13;;;;;;;10.25;91.27;102340.53;4858896;29;20037;-90
2021/03/16 07:07:33;;;;;;;1.25;1.00;;;;;;;10.28;91.32;102344.66;4841710;29;20064;-84
2021/03/16 07:10:06;;;;;;;2.17;1.05;;;;;;;10.27;91.41;102346.59;4859998;29;20135;-83
2021/03/16 07:12:35;;;;;;;1.58;1.00;;;;;;;10.31;91.21;102349.59;4877720;29;20060;-83
2021/03/16 07:15:04;;;;;;;2.78;1.20;;;;;;;10.31;91.48;102350.41;4866022;29;20065;-83
2021/03/16 07:17:32;;;;;;;6.45;1.80;;;;;;;10.31;91.24;102355.94;4841587;29;20128;-83
2021/03/16 07:20:06;;;;;;;3.38;1.20;;;;;;;10.33;91.46;102367.53;4838652;29;20559;-84
2021/03/16 07:22:38;;;;;;;2.92;2.30;;;;;;;10.37;91.21;102353.91;4851081;29;20110;-84
2021/03/16 07:25:09;;;;;;;0.93;0.85;;;;;;;10.40;91.05;102369.91;4851132;29;20107;-83
2021/03/16 07:27:36;;;;;;;2.85;0.95;;;;;;;10.39;91.18;102376.56;4851444;29;20049;-82
2021/03/16 07:30:03;;;;;;;1.10;1.00;;;;;;;10.43;91.12;102380.38;4854100;29;20141;-83
2021/03/16 07:32:30;;;;;;;2.95;1.27;;;;;;;10.48;91.11;102371.97;4841655;29;20049;-84
2021/03/16 07:35:01;;;;;;;1.92;0.90;;;;;;;10.51;90.94;102365.81;4858771;29;20049;-84
2021/03/16 07:37:29;;;;;;;;;;;;;;;10.54;91.16;102375.47;4857959;29;20562;-83
2021/03/16 07:40:00;;;;;;;3.65;1.30;;;;;;;10.57;90.79;102389.53;4857501;29;20361;-84
2021/03/16 07:42:27;;;;;;;5.87;1.40;;;;;;;10.59;90.69;102373.41;4852742;29;20105;-85
2021/03/16 07:44:54;;;;;;;2.05;1.50;;;;;;;10.60;90.64;102386.16;4836186;29;20162;-84
2021/03/16 07:47:20;;;;;;;2.75;1.35;;;;;;;10.62;90.61;102378.34;4858079;29;20073;-85
2021/03/16 07:49:46;;;;;;;2.30;1.00;;;;;;;10.67;90.52;102394.06;4854556;29;20050;-84
2021/03/16 07:52:18;;;;;;;1.88;1.20;;;;;;;10.71;90.38;102389.53;4851360;29;20563;-84
2021/03/16 07:54:48;;;;;;;6.43;2.03;;;;;;;10.75;90.31;102405.25;4850196;29;20453;-84
2021/03/16 07:57:28;;;;;;;3.40;1.30;;;;;;;10.79;90.24;102411.00;4851246;29;20529;-84
2021/03/16 08:00:06;;;;;;;2.17;1.40;;;;;;;10.80;90.00;102419.00;4854010;29;20136;-83
2021/03/16 08:02:37;;;;;;;1.42;1.00;;;;;;;10.83;90.14;102414.78;4853941;29;20050;-87
2021/03/16 08:05:16;;;;;;;1.52;1.10;;;;;;;10.87;90.10;102419.44;4854956;29;20677;-85
2021/03/16 08:07:43;;;;;;;2.55;1.48;;;;;;;10.96;89.86;102425.88;4853786;29;20070;-83
2021/03/16 08:10:10;;;;;;;3.22;1.50;;;;;;;11.05;89.84;102420.47;4879716;29;20057;-83
2021/03/16 08:12:37;;;;;;;1.90;1.38;;;;;;;11.15;89.92;102427.72;4861322;29;20060;-85
2021/03/16 08:15:12;;;;;;;2.60;1.40;;;;;;;11.25;89.18;102425.56;4856988;29;20045;-84
2021/03/16 08:17:38;;;;;;;1.55;0.95;;;;;;;11.29;88.99;102445.19;4859325;29;20060;-84
2021/03/16 08:20:06;;;;;;;1.48;1.38;;;;;;;11.29;88.93;102451.56;4852860;29;20045;-83
2021/03/16 08:22:33;;;;;;;1.23;0.82;;;;;;;11.29;88.77;102447.97;4821831;29;20049;-84
2021/03/16 08:25:00;;;;;;;2.20;1.00;;;;;;;11.27;88.44;102439.97;4864684;29;20034;-84
2021/03/16 08:27:28;;;;;;;2.05;0.93;;;;;;;11.26;88.47;102451.34;4856616;29;20056;-84
2021/03/16 08:29:54;;;;;;;1.40;1.30;;;;;;;11.26;88.46;102454.13;4856325;29;20101;-84
2021/03/16 08:32:23;;;;;;;0.57;0.55;;;;;;;11.22;88.23;102465.03;4837430;29;20170;-83
2021/03/16 08:34:51;;;;;;;1.60;0.90;;;;;;;11.23;88.29;102466.66;4850281;29;20105;-83
2021/03/16 08:37:19;;;;;;;1.80;0.82;;;;;;;11.25;88.20;102469.13;4827413;29;20038;-83
2021/03/16 08:39:45;;;;;;;1.50;1.00;;;;;;;11.26;87.89;102476.31;4856626;29;20133;-83
2021/03/16 08:42:17;;;;;;;1.00;0.60;;;;;;;11.24;87.56;102490.50;4849072;29;20066;-83
2021/03/16 08:44:43;;;;;;;0.88;0.88;;;;;;;11.21;87.37;102499.41;4849214;29;20882;-84
2021/03/16 08:47:12;;;;;;;0.70;0.50;;;;;;;11.21;87.58;102504.97;4825367;29;20054;-83
2021/03/16 08:49:44;;;;;;;3.50;0.95;;;;;;;11.20;87.38;102514.41;4858052;29;20132;-83
2021/03/16 08:52:20;;;;;;;0.67;0.47;;;;;;;11.17;87.18;102523.34;4859390;29;20137;-84
2021/03/16 08:54:51;;;;;;;1.70;0.77;;;;;;;11.18;87.52;102513.88;4836540;29;20117;-84
2021/03/16 08:57:22;;;;;;;0.50;0.50;;;;;;;11.17;87.27;102503.94;4839753;29;20103;-84
2021/03/16 08:59:50;;;;;;;0.93;0.68;;;;;;;11.18;87.45;102502.81;4839245;29;20078;-84
2021/03/16 09:02:21;;;;;;;0.73;0.70;;;;;;;11.27;87.49;102512.06;4854902;29;20080;-83
2021/03/16 09:04:49;;;;;;;0.30;0.30;;;;;;;11.34;87.24;102517.19;4849748;29;20060;-83
2021/03/16 09:07:29;;;;;;;0.30;0.25;;;;;;;11.31;86.84;102526.94;4859049;29;20053;-81
2021/03/16 09:10:19;;;;;;;0.75;0.30;;;;;;;11.30;86.87;102519.78;4846722;29;20091;-83
2021/03/16 09:12:47;;;;;;;0.95;0.30;;;;;;;11.36;87.11;102529.63;4851022;29;20046;-84
2021/03/16 09:15:18;;;;;;;3.08;0.88;;;;;;;11.39;86.71;102526.22;4841678;29;20148;-84
2021/03/16 09:17:48;;;;;;;0.75;0.43;;;;;;;11.42;86.70;102533.94;4858282;29;20065;-83
2021/03/16 09:20:20;;;;;;;0.30;0.30;;;;;;;11.45;86.46;102530.56;4859924;29;20030;-84
2021/03/16 09:22:56;;;;;;;0.20;0.20;;;;;;;11.48;86.04;102529.94;4849162;29;20041;-85
2021/03/16 09:25:33;;;;;;;2.33;1.58;;;;;;;11.51;85.92;102528.50;4853588;29;20141;-84
2021/03/16 09:28:01;;;;;;;0.32;0.17;;;;;;;11.52;85.48;102519.84;4847892;29;20044;-85
2021/03/16 09:30:35;;;;;;;0.15;0.10;;;;;;;11.63;85.40;102514.94;4859640;29;20729;-83
2021/03/16 09:33:07;;;;;;;0.20;0.20;;;;;;;11.75;84.76;102522.75;4853372;29;20150;-84
2021/03/16 09:35:34;;;;;;;2.17;0.00;;;;;;;11.86;84.58;102526.97;4862199;29;20130;-83
2021/03/16 09:38:05;;;;;;;0.15;0.10;;;;;;;11.95;84.43;102534.25;4872443;29;20574;-85
2021/03/16 09:40:36;;;;;;;0.13;0.13;;;;;;;11.98;83.99;102543.91;4860480;29;20136;-84
2021/03/16 09:43:14;;;;;;;0.30;0.17;;;;;;;11.96;83.79;102551.72;4860459;29;20053;-84
2021/03/16 09:45:50;;;;;;;0.20;0.10;;;;;;;12.00;83.49;102552.72;4860797;29;20435;-85
2021/03/16 09:48:18;;;;;;;0.20;0.20;;;;;;;12.01;83.73;102568.28;4858491;29;20041;-84
2021/03/16 09:50:46;;;;;;;0.95;0.30;;;;;;;11.99;83.49;102576.09;4842555;29;20098;-84
2021/03/16 09:53:15;;;;;;;0.25;0.25;;;;;;;11.96;83.24;102579.47;4822274;29;20061;-84
2021/03/16 09:55:58;;;;;;;1.25;0.40;;;;;;;11.93;82.88;102602.31;4859133;29;20435;-84
2021/03/16 09:58:27;;;;;;;0.55;0.50;;;;;;;11.95;83.12;102595.31;4844795;29;20060;-84
2021/03/16 10:00:54;;;;;;;0.20;0.20;;;;;;;11.95;82.90;102589.75;4859896;29;20121;-84
2021/03/16 10:03:22;;;;;;;0.30;0.30;;;;;;;11.96;82.42;102579.47;4827859;29;20042;-85
2021/03/16 10:05:49;;;;;;;0.38;0.38;;;;;;;11.96;82.31;102583.09;4849709;29;20145;-84
2021/03/16 10:08:24;;;;;;;1.02;0.28;;;;;;;11.97;82.10;102578.34;4842648;29;20441;-87
2021/03/16 10:10:54;;;;;;;2.00;1.00;;;;;;;12.04;82.27;102587.09;4834239;29;20864;-85
2021/03/16 10:13:35;;;;;;;1.00;0.30;;;;;;;12.26;82.02;102589.91;4824253;29;20065;-85
2021/03/16 10:16:11;;;;;;;0.60;0.47;;;;;;;12.54;81.36;102580.38;4857835;29;20059;-84
2021/03/16 10:18:44;;;;;;;2.03;0.40;;;;;;;12.94;81.10;102583.31;4857269;29;20049;-84
2021/03/16 10:21:15;;;;;;;0.85;0.30;;;;;;;13.26;80.60;102585.84;4866505;29;20127;-89
2021/03/16 10:23:41;;;;;;;0.32;0.20;;;;;;;13.62;79.99;102585.66;4866915;29;20558;-85
2021/03/16 10:26:10;;;;;;;0.55;0.30;;;;;;;14.15;79.21;102579.94;4840480;29;20080;-85
2021/03/16 10:28:39;;;;;;;0.25;0.10;;;;;;;14.20;78.26;102582.56;4858418;29;20502;-85
2021/03/16 10:31:16;;;;;;;0.63;0.40;;;;;;;14.38;73.53;102585.09;4837254;29;20050;-86
2021/03/16 10:33:44;;;;;;;0.45;0.17;;;;;;;15.11;76.63;102603.59;4844218;29;20158;-85
2021/03/16 10:36:11;;;;;;;0.52;0.20;;;;;;;15.60;75.27;102599.38;4841223;29;20050;-84
2021/03/16 10:38:37;;;;;;;0.38;0.30;;;;;;;16.14;74.30;102610.78;4854443;29;20050;-86
2021/03/16 10:41:04;;;;;;;0.60;0.40;;;;;;;16.43;73.12;102611.59;4835729;29;20099;-84
2021/03/16 10:43:31;;;;;;;1.50;0.95;;;;;;;16.67;71.73;102612.91;4847870;29;20506;-85
2021/03/16 10:45:58;;;;;;;0.95;0.65;;;;;;;16.47;70.37;102608.91;4839590;29;20566;-85
2021/03/16 10:48:30;;;;;;;3.30;0.52;;;;;;;16.23;70.06;102606.78;4835416;29;20041;-85
2021/03/16 10:50:57;;;;;;;1.48;0.50;;;;;;;16.47;68.32;102599.72;4839173;29;20054;-85
2021/03/16 10:53:24;;;;;;;2.78;0.75;;;;;;;16.92;67.20;102614.66;4855787;29;20061;-85
2021/03/16 10:56:00;;;;;;;2.13;0.20;;;;;;;17.16;65.53;102622.34;4839693;29;20086;-86
2021/03/16 10:58:28;;;;;;;1.52;0.25;;;;;;;17.07;65.18;102616.84;4858752;29;20120;-86
2021/03/16 11:00:54;;;;;;;2.50;0.55;;;;;;;16.99;64.38;102612.97;4837471;29;20038;-84
2021/03/16 11:03:28;;;;;;;1.67;0.60;;;;;;;17.10;63.27;102609.75;4826845;29;20042;-85
2021/03/16 11:05:55;;;;;;;2.33;0.40;;;;;;;17.11;62.12;102625.34;4834413;29;20054;-85
2021/03/16 11:08:22;;;;;;;1.95;0.63;;;;;;;17.13;61.72;102618.25;4831160;29;20053;-85
2021/03/16 11:10:49;;;;;;;2.47;0.90;;;;;;;17.02;61.61;102623.44;4811853;29;20528;-84
2021/03/16 11:13:15;;;;;;;2.72;0.70;;;;;;;16.94;61.88;102609.56;4816194;29;20059;-85
2021/03/16 11:15:41;;;;;;;2.45;0.75;;;;;;;16.79;62.28;102619.38;4816742;29;20072;-84
2021/03/16 11:18:08;;;;;;;1.23;0.43;;;;;;;16.37;61.89;102635.31;4820436;29;20622;-85
2021/03/16 11:20:35;;;;;;;2.72;0.65;;;;;;;16.10;61.63;102633.00;4830376;29;20129;-84
2021/03/16 11:23:01;;;;;;;1.17;0.35;;;;;;;15.96;61.04;102645.56;4835418;29;20065;-85
2021/03/16 11:25:27;;;;;;;5.95;1.15;;;;;;;15.78;60.84;102650.38;4827258;29;20050;-84
2021/03/16 11:27:54;;;;;;;2.53;0.70;;;;;;;15.62;60.52;102658.50;4829024;29;20065;-85
2021/03/16 11:30:20;;;;;;;5.25;0.73;;;;;;;15.39;60.24;102659.00;4821572;29;20121;-84
2021/03/16 11:32:46;;;;;;;4.03;0.77;;;;;;;15.20;59.60;102679.72;4823771;29;20062;-84
2021/03/16 11:35:13;;;;;;;3.03;1.25;;;;;;;14.88;58.47;102682.22;4818986;29;20046;-85